Weather at Hässleholm Bokeberg Airfield

Public forecast

Using degrees Celsius for public forecast. Weather courtesy of forecast.io.

Closest aviation weather report (METAR) to Hässleholm Bokeberg Airfield

Closest report is Kristianstad Airport, 14.6 nm (27.0 km) SSE.

2024/05/18 21:50 (retrieved 25 minutes ago)

ESMK 182150Z AUTO /////KT 9999 NCD 07/06 Q1014

Closest aviation forecast (TAF) to Hässleholm Bokeberg Airfield

Closest forecast is Malmö Sturup Airport, 39.3 nm (72.9 km) SSW.

2024/05/18 21:36 (retrieved 39 minutes ago)

TAF ESMS 182009Z 1821/1921 07008KT CAVOK PROB40 1906/1910 SCT050CB TEMPO 1910/1915 SHRA SCT050CB